Terminal Aerodrome Forecast
Issued by NWS

Home | Current Version | Previous Version | Text Only | Print | Product List | Glossary On
Versions: 1 2 3 4 5 6 7 8 9 10 11 12 13 14 15 16 17 18 19
000
FTUS43 KGRR 301100 RRA
TAFLAN
TAF
KLAN 301147Z 3012/0112 35009KT 5SM BR OVC008
      TEMPO 3012/3015 2SM BR OVC005
     FM301500 35009KT P6SM OVC010
     FM301800 35009KT P6SM BKN020
     FM010100 10005KT P6SM BKN025=

USA.gov is the U.S. government's official web portal to all federal, state and local government web resources and services.